createdAt,value
2023-03-07T00:00:37.565Z,11.40
2023-03-07T00:03:05.708Z,12.00
2023-03-07T00:05:34.070Z,15.00
2023-03-07T00:08:02.910Z,16.90
2023-03-07T00:10:31.037Z,13.70
2023-03-07T00:13:01.119Z,12.00
2023-03-07T00:15:29.342Z,11.30
2023-03-07T00:17:58.387Z,14.10
2023-03-07T00:20:26.488Z,11.40
2023-03-07T00:22:54.463Z,14.20
2023-03-07T00:25:22.559Z,12.10
2023-03-07T00:27:50.653Z,15.20
2023-03-07T00:30:18.748Z,8.90
2023-03-07T00:32:47.582Z,12.20
2023-03-07T00:35:15.963Z,7.90
2023-03-07T00:37:43.920Z,12.00
2023-03-07T00:40:14.136Z,7.70
2023-03-07T00:42:43.648Z,11.60
2023-03-07T00:45:11.613Z,9.70
2023-03-07T00:47:42.024Z,12.60
2023-03-07T00:50:10.583Z,13.00
2023-03-07T00:52:39.588Z,12.50
2023-03-07T00:55:08.521Z,15.50
2023-03-07T00:57:36.683Z,11.90
2023-03-07T01:00:05.784Z,10.50
2023-03-07T01:02:33.972Z,16.80
2023-03-07T01:05:04.723Z,11.70
2023-03-07T01:07:32.848Z,10.50
2023-03-07T01:10:01.773Z,12.20
2023-03-07T01:12:31.485Z,11.10
2023-03-07T01:14:59.969Z,14.00
2023-03-07T01:17:27.997Z,12.70
2023-03-07T01:19:55.962Z,15.10
2023-03-07T01:22:24.158Z,14.00
2023-03-07T01:24:54.586Z,13.70
2023-03-07T01:27:22.606Z,14.20
2023-03-07T01:29:50.607Z,14.50
2023-03-07T01:32:18.674Z,12.10
2023-03-07T01:34:46.630Z,11.60
2023-03-07T01:37:15.015Z,14.20
2023-03-07T01:39:43.091Z,11.90
2023-03-07T01:42:15.467Z,12.80
2023-03-07T01:45:05.552Z,10.30
2023-03-07T01:47:41.601Z,11.30
2023-03-07T01:50:13.929Z,14.70
2023-03-07T01:52:49.586Z,10.50
2023-03-07T01:55:22.870Z,12.00
2023-03-07T01:57:53.854Z,11.70
2023-03-07T02:00:31.517Z,11.30
2023-03-07T02:03:06.515Z,12.20
2023-03-07T02:05:41.215Z,14.70
2023-03-07T02:08:11.507Z,13.10
2023-03-07T02:10:39.576Z,15.30
2023-03-07T02:13:07.579Z,12.70
2023-03-07T02:15:48.086Z,12.60
2023-03-07T02:18:19.391Z,12.10
2023-03-07T02:21:09.483Z,12.80
2023-03-07T02:24:00.270Z,14.40
2023-03-07T02:26:28.447Z,13.50
2023-03-07T02:29:02.084Z,12.90
2023-03-07T02:31:30.512Z,13.40
2023-03-07T02:33:59.806Z,13.90
2023-03-07T02:36:33.646Z,15.70
2023-03-07T02:39:12.160Z,21.30
2023-03-07T02:41:40.856Z,16.10
2023-03-07T02:44:15.166Z,13.70
2023-03-07T02:46:43.511Z,19.20
2023-03-07T02:49:12.961Z,14.70
2023-03-07T02:51:40.808Z,22.00
2023-03-07T02:54:08.692Z,19.80
2023-03-07T02:56:37.004Z,15.60
2023-03-07T02:59:05.071Z,15.30
2023-03-07T03:01:33.748Z,15.70
2023-03-07T03:04:01.889Z,13.10
2023-03-07T03:06:29.950Z,15.80
2023-03-07T03:08:58.924Z,15.80
2023-03-07T03:11:27.816Z,16.10
2023-03-07T03:13:57.574Z,16.10
2023-03-07T03:16:26.043Z,12.80
2023-03-07T03:18:54.694Z,13.50
2023-03-07T03:21:22.845Z,16.80
2023-03-07T03:23:51.128Z,13.00
2023-03-07T03:26:19.029Z,15.30
2023-03-07T03:28:47.206Z,14.10
2023-03-07T03:31:15.355Z,11.50
2023-03-07T03:33:45.380Z,11.10
2023-03-07T03:36:15.818Z,14.20
2023-03-07T03:38:44.624Z,13.10
2023-03-07T03:41:16.164Z,12.10
2023-03-07T03:43:44.510Z,15.20
2023-03-07T03:46:13.120Z,12.80
2023-03-07T03:48:41.480Z,12.10
2023-03-07T03:51:14.722Z,11.40
2023-03-07T03:53:43.445Z,9.60
2023-03-07T03:56:16.607Z,11.20
2023-03-07T03:58:51.607Z,12.00
2023-03-07T04:03:49.592Z,11.10
2023-03-07T04:06:36.047Z,8.40
2023-03-07T04:09:13.840Z,9.40
2023-03-07T04:11:45.334Z,11.80
2023-03-07T04:14:13.768Z,11.20
2023-03-07T04:16:42.300Z,10.90
2023-03-07T04:19:12.902Z,10.80
2023-03-07T04:21:41.199Z,8.40
2023-03-07T04:24:12.694Z,9.90
2023-03-07T04:26:41.864Z,6.90
2023-03-07T04:29:10.824Z,6.00
2023-03-07T04:31:44.491Z,9.10
2023-03-07T04:34:12.630Z,11.00
2023-03-07T04:36:41.028Z,7.40
2023-03-07T04:39:09.426Z,8.80
2023-03-07T04:41:37.807Z,8.40
2023-03-07T04:44:10.427Z,12.40
2023-03-07T04:46:38.504Z,8.10
2023-03-07T04:49:06.570Z,5.60
2023-03-07T04:51:34.876Z,8.10
2023-03-07T04:54:03.513Z,6.60
2023-03-07T04:56:32.695Z,7.50
2023-03-07T04:59:01.448Z,9.80
2023-03-07T05:01:29.515Z,9.10
2023-03-07T05:03:58.320Z,12.20
2023-03-07T05:06:27.352Z,6.70
2023-03-07T05:08:55.378Z,8.00
2023-03-07T05:11:23.743Z,5.40
2023-03-07T05:13:54.915Z,8.00
2023-03-07T05:16:23.883Z,11.10
2023-03-07T05:18:51.882Z,9.30
2023-03-07T05:21:20.168Z,8.00
2023-03-07T05:23:50.998Z,11.10
2023-03-07T05:26:20.705Z,7.80
2023-03-07T05:28:49.521Z,10.30
2023-03-07T05:31:18.603Z,10.40
2023-03-07T05:33:47.483Z,9.00
2023-03-07T05:36:19.895Z,12.00
2023-03-07T05:38:48.274Z,9.10
2023-03-07T05:41:18.043Z,7.70
2023-03-07T05:43:47.092Z,11.00
2023-03-07T05:46:15.303Z,9.70
2023-03-07T05:48:43.410Z,10.50
2023-03-07T05:51:11.372Z,11.10
2023-03-07T05:54:41.951Z,10.30
2023-03-07T05:57:10.589Z,7.00
2023-03-07T05:59:39.510Z,10.70
2023-03-07T06:02:07.893Z,11.60
2023-03-07T06:04:36.729Z,8.30
2023-03-07T06:07:05.444Z,6.60
2023-03-07T06:09:36.206Z,9.30
2023-03-07T06:12:04.642Z,5.90
2023-03-07T06:14:37.435Z,9.90
2023-03-07T06:17:07.220Z,7.00
2023-03-07T06:19:35.627Z,8.00
2023-03-07T06:22:04.069Z,9.40
2023-03-07T06:24:32.680Z,9.10
2023-03-07T06:27:01.260Z,7.90
2023-03-07T06:29:30.191Z,6.60
2023-03-07T06:31:58.580Z,8.10
2023-03-07T06:34:26.531Z,5.80
2023-03-07T06:36:54.735Z,6.10
2023-03-07T06:39:23.089Z,5.70
2023-03-07T06:41:53.010Z,7.40
2023-03-07T06:44:20.926Z,8.30
2023-03-07T06:46:51.986Z,9.30
2023-03-07T06:49:20.946Z,5.70
2023-03-07T06:51:49.324Z,8.30
2023-03-07T06:54:17.834Z,8.40
2023-03-07T06:56:45.979Z,6.80
2023-03-07T06:59:17.185Z,10.10
2023-03-07T07:01:45.204Z,8.90
2023-03-07T07:04:13.381Z,9.20
2023-03-07T07:06:45.199Z,5.90
2023-03-07T07:09:14.319Z,6.70
2023-03-07T07:11:42.465Z,8.30
2023-03-07T07:14:13.311Z,10.90
2023-03-07T07:16:42.461Z,8.60
2023-03-07T07:19:10.577Z,7.90
2023-03-07T07:21:38.820Z,7.30
2023-03-07T07:24:07.261Z,7.90
2023-03-07T07:26:36.359Z,7.80
2023-03-07T07:29:04.415Z,8.10
2023-03-07T07:31:32.472Z,8.60
2023-03-07T07:34:00.905Z,5.30
2023-03-07T07:36:30.719Z,7.40
2023-03-07T07:38:59.262Z,4.10
2023-03-07T07:41:27.990Z,6.90
2023-03-07T07:43:57.087Z,7.20
2023-03-07T07:46:34.376Z,6.00
2023-03-07T07:49:03.501Z,9.50
2023-03-07T07:51:32.853Z,7.90
2023-03-07T07:54:00.984Z,6.40
2023-03-07T07:56:29.578Z,7.70
2023-03-07T07:58:57.467Z,6.70
2023-03-07T08:01:25.836Z,6.50
2023-03-07T08:03:54.155Z,4.70
2023-03-07T08:06:24.033Z,6.60
2023-03-07T08:08:52.321Z,4.60
2023-03-07T08:11:21.104Z,5.40
2023-03-07T08:13:50.657Z,3.50
2023-03-07T08:16:19.981Z,5.10
2023-03-07T08:18:49.570Z,4.70
2023-03-07T08:21:17.612Z,8.80
2023-03-07T08:23:46.267Z,7.30
2023-03-07T08:26:14.425Z,6.00
2023-03-07T08:28:42.529Z,5.90
2023-03-07T08:31:14.945Z,5.70
2023-03-07T08:33:44.290Z,5.70
2023-03-07T08:36:12.412Z,6.20
2023-03-07T08:38:40.239Z,6.60
2023-03-07T08:41:08.755Z,5.30
2023-03-07T08:43:37.301Z,6.00
2023-03-07T08:46:05.476Z,6.50
2023-03-07T08:48:33.904Z,6.30
2023-03-07T08:51:09.791Z,6.30
2023-03-07T08:53:40.416Z,6.00
2023-03-07T08:56:13.301Z,7.80
2023-03-07T08:58:41.572Z,7.90
2023-03-07T09:01:10.254Z,7.20
2023-03-07T09:03:38.437Z,7.00
2023-03-07T09:06:06.458Z,8.00
2023-03-07T09:08:34.388Z,7.40
2023-03-07T09:11:05.567Z,6.30
2023-03-07T09:13:42.958Z,6.10
2023-03-07T09:16:18.367Z,4.10
2023-03-07T09:18:46.413Z,9.90
2023-03-07T09:21:17.025Z,6.80
2023-03-07T09:23:45.063Z,6.80
2023-03-07T09:26:19.121Z,5.20
2023-03-07T09:28:47.553Z,6.50
2023-03-07T09:31:16.182Z,6.70
2023-03-07T09:33:47.053Z,8.00
2023-03-07T09:36:16.486Z,5.20
2023-03-07T09:38:44.356Z,6.40
2023-03-07T09:41:34.482Z,6.50
2023-03-07T09:44:21.215Z,7.60
2023-03-07T09:47:37.570Z,7.10
2023-03-07T09:50:12.360Z,5.60
2023-03-07T09:55:13.739Z,5.50
2023-03-07T09:57:50.050Z,6.70
2023-03-07T10:00:38.244Z,7.40
2023-03-07T10:03:27.380Z,4.70
2023-03-07T10:05:57.700Z,5.30
2023-03-07T10:08:33.199Z,5.90
2023-03-07T10:11:13.613Z,5.10
2023-03-07T10:14:11.420Z,6.10
2023-03-07T10:17:21.724Z,6.60
2023-03-07T10:19:51.824Z,10.80
2023-03-07T10:22:35.406Z,5.00
2023-03-07T10:25:12.111Z,5.90
2023-03-07T10:27:40.304Z,7.90
2023-03-07T10:30:15.878Z,5.70
2023-03-07T10:32:44.016Z,4.90
2023-03-07T10:35:13.607Z,6.10
2023-03-07T10:38:04.112Z,4.80
2023-03-07T10:40:35.354Z,5.20
2023-03-07T10:43:04.818Z,5.70
2023-03-07T10:45:35.201Z,6.10
2023-03-07T10:48:06.819Z,4.50
2023-03-07T10:51:04.496Z,6.10
2023-03-07T10:53:34.237Z,5.30
2023-03-07T10:56:15.417Z,8.10
2023-03-07T10:59:03.492Z,6.20
2023-03-07T11:01:32.595Z,8.00
2023-03-07T11:04:07.084Z,8.40
2023-03-07T11:06:37.435Z,6.40
2023-03-07T11:09:32.356Z,7.20
2023-03-07T11:12:05.067Z,7.10
2023-03-07T11:14:54.462Z,5.90
2023-03-07T11:17:27.283Z,5.40
2023-03-07T11:19:56.391Z,5.20
2023-03-07T11:22:35.966Z,6.90
2023-03-07T11:25:25.411Z,5.80
2023-03-07T11:27:57.979Z,7.20
2023-03-07T11:30:38.361Z,5.40
2023-03-07T11:33:22.740Z,7.70
2023-03-07T11:36:03.898Z,5.40
2023-03-07T11:38:41.289Z,5.30
2023-03-07T11:41:19.784Z,5.30
2023-03-07T11:43:53.837Z,5.10
2023-03-07T11:46:32.530Z,5.80
2023-03-07T11:49:12.666Z,5.40
2023-03-07T11:51:50.304Z,4.40
2023-03-07T11:54:30.435Z,4.30
2023-03-07T11:57:12.180Z,4.90
2023-03-07T11:59:52.386Z,5.00
2023-03-07T12:02:42.251Z,5.30
2023-03-07T12:05:20.997Z,4.90
2023-03-07T12:07:49.005Z,5.60
2023-03-07T12:10:36.116Z,4.70
2023-03-07T12:13:38.195Z,4.70
2023-03-07T12:16:12.578Z,4.30
2023-03-07T12:18:43.930Z,6.20
2023-03-07T12:21:40.120Z,4.70
2023-03-07T12:24:19.594Z,7.30
2023-03-07T12:26:53.609Z,7.00
2023-03-07T12:29:34.627Z,4.20
2023-03-07T12:32:07.167Z,5.60
2023-03-07T12:34:45.004Z,6.70
2023-03-07T12:37:23.620Z,6.10
2023-03-07T12:39:57.907Z,5.70
2023-03-07T12:42:42.403Z,6.00
2023-03-07T12:45:41.302Z,4.60
2023-03-07T12:48:17.290Z,6.70
2023-03-07T12:51:06.222Z,6.60
2023-03-07T12:53:42.881Z,9.20
2023-03-07T12:56:29.868Z,5.70
2023-03-07T12:59:03.623Z,8.00
2023-03-07T13:01:40.198Z,6.40
2023-03-07T13:04:16.627Z,7.20
2023-03-07T13:06:45.051Z,6.70
2023-03-07T13:09:20.195Z,6.20
2023-03-07T13:12:08.069Z,6.40
2023-03-07T13:14:48.470Z,5.50
2023-03-07T13:17:35.236Z,6.40
2023-03-07T13:20:09.038Z,5.20
2023-03-07T13:22:43.236Z,4.70
2023-03-07T13:25:21.283Z,5.00
2023-03-07T13:27:51.740Z,5.90
2023-03-07T13:30:23.491Z,7.90
2023-03-07T13:32:51.950Z,6.90
2023-03-07T13:35:31.839Z,5.80
2023-03-07T13:38:15.339Z,6.90
2023-03-07T13:40:43.640Z,6.10
2023-03-07T13:43:26.348Z,5.50
2023-03-07T13:46:05.944Z,7.90
2023-03-07T13:48:35.985Z,7.20
2023-03-07T13:51:07.662Z,7.70
2023-03-07T13:53:41.796Z,7.20
2023-03-07T13:56:10.960Z,6.50
2023-03-07T13:58:39.438Z,8.40
2023-03-07T14:01:13.719Z,6.40
2023-03-07T14:03:46.756Z,6.00
2023-03-07T14:06:37.940Z,9.20
2023-03-07T14:09:07.735Z,7.70
2023-03-07T14:11:57.737Z,7.40
2023-03-07T14:14:56.857Z,6.40
2023-03-07T14:17:31.756Z,8.00
2023-03-07T14:20:20.708Z,7.20
2023-03-07T14:23:04.188Z,5.70
2023-03-07T14:25:34.884Z,6.10
2023-03-07T14:28:05.653Z,7.90
2023-03-07T14:30:33.908Z,5.10
2023-03-07T14:33:03.401Z,5.10
2023-03-07T14:35:42.687Z,8.10
2023-03-07T14:38:19.603Z,5.20
2023-03-07T14:41:12.387Z,4.40
2023-03-07T14:44:09.791Z,6.60
2023-03-07T14:47:01.592Z,5.50
2023-03-07T14:49:48.611Z,6.30
2023-03-07T14:52:30.022Z,5.60
2023-03-07T14:55:03.572Z,5.70
2023-03-07T14:57:44.027Z,6.70
2023-03-07T15:00:24.900Z,7.40
2023-03-07T15:02:53.821Z,6.20
2023-03-07T15:05:35.566Z,7.40
2023-03-07T15:08:06.895Z,7.00
2023-03-07T15:10:40.737Z,5.70
2023-03-07T15:13:23.845Z,4.50
2023-03-07T15:15:56.525Z,8.00
2023-03-07T15:18:39.164Z,11.10
2023-03-07T15:21:08.688Z,5.90
2023-03-07T15:23:37.168Z,6.60
2023-03-07T15:26:06.655Z,5.20
2023-03-07T15:28:36.738Z,6.50
2023-03-07T15:31:05.063Z,6.40
2023-03-07T15:33:33.694Z,5.90
2023-03-07T15:36:06.875Z,5.90
2023-03-07T15:38:35.394Z,5.60
2023-03-07T15:41:33.647Z,5.10
2023-03-07T15:44:04.870Z,7.30
2023-03-07T15:46:32.825Z,7.40
2023-03-07T15:49:00.767Z,6.60
2023-03-07T15:51:35.148Z,7.70
2023-03-07T15:54:39.533Z,7.30
2023-03-07T15:57:16.022Z,5.80
2023-03-07T15:59:52.168Z,6.10
2023-03-07T16:02:34.969Z,7.40
2023-03-07T16:05:06.234Z,7.50
2023-03-07T16:07:38.444Z,6.40
2023-03-07T16:10:06.779Z,6.60
2023-03-07T16:12:35.015Z,7.10
2023-03-07T16:15:05.902Z,6.30
2023-03-07T16:17:37.526Z,7.20
2023-03-07T16:20:16.274Z,9.20
2023-03-07T16:22:49.081Z,5.70
2023-03-07T16:25:17.009Z,6.60
2023-03-07T16:27:56.745Z,5.40
2023-03-07T16:30:26.690Z,6.10
2023-03-07T16:32:55.000Z,6.60
2023-03-07T16:35:24.629Z,7.10
2023-03-07T16:37:53.170Z,6.70
2023-03-07T16:40:21.375Z,6.30
2023-03-07T16:43:23.885Z,6.80
2023-03-07T16:45:55.317Z,6.40
2023-03-07T16:48:23.548Z,8.20
2023-03-07T16:50:51.642Z,9.00
2023-03-07T16:53:20.883Z,10.30
2023-03-07T16:55:49.096Z,6.70
2023-03-07T16:58:28.101Z,9.30
2023-03-07T17:00:56.387Z,25.10
2023-03-07T17:03:25.252Z,28.60
2023-03-07T17:05:53.149Z,21.90
2023-03-07T17:08:22.415Z,26.20
2023-03-07T17:10:50.281Z,26.50
2023-03-07T17:13:19.287Z,24.90
2023-03-07T17:15:47.767Z,18.00
2023-03-07T17:18:17.468Z,27.80
2023-03-07T17:20:46.377Z,19.50
2023-03-07T17:23:15.116Z,22.50
2023-03-07T17:25:43.371Z,14.70
2023-03-07T17:28:14.152Z,16.60
2023-03-07T17:30:45.125Z,16.30
2023-03-07T17:33:15.235Z,17.80
2023-03-07T17:35:43.805Z,20.70
2023-03-07T17:38:12.289Z,22.50
2023-03-07T17:40:40.438Z,19.50
2023-03-07T17:43:13.063Z,20.50
2023-03-07T17:45:51.091Z,26.60
2023-03-07T17:48:20.171Z,21.20
2023-03-07T17:50:48.054Z,17.50
2023-03-07T17:53:16.972Z,18.20
2023-03-07T17:55:44.916Z,16.00
2023-03-07T17:58:12.858Z,20.50
2023-03-07T18:00:40.842Z,23.10
2023-03-07T18:03:08.908Z,16.40
2023-03-07T18:05:39.251Z,22.90
2023-03-07T18:08:07.620Z,21.70
2023-03-07T18:12:04.451Z,27.20
2023-03-07T18:14:33.128Z,27.90
2023-03-07T18:17:01.195Z,29.60
2023-03-07T18:19:34.333Z,27.10
2023-03-07T18:22:02.201Z,29.90
2023-03-07T18:24:30.404Z,32.40
2023-03-07T18:27:03.313Z,28.90
2023-03-07T18:29:31.958Z,27.40
2023-03-07T18:32:00.381Z,29.80
2023-03-07T18:34:29.191Z,25.10
2023-03-07T18:36:57.234Z,21.70
2023-03-07T18:39:27.388Z,26.10
2023-03-07T18:41:55.340Z,23.40
2023-03-07T18:44:23.419Z,19.40
2023-03-07T18:46:52.766Z,19.50
2023-03-07T18:49:20.931Z,21.70
2023-03-07T18:51:49.157Z,21.10
2023-03-07T18:54:17.459Z,17.60
2023-03-07T18:56:46.941Z,21.30
2023-03-07T18:59:16.090Z,22.40
2023-03-07T19:01:45.013Z,26.70
2023-03-07T19:04:13.089Z,26.60
2023-03-07T19:06:44.629Z,18.20
2023-03-07T19:09:17.510Z,22.90
2023-03-07T19:11:47.052Z,17.20
2023-03-07T19:14:16.318Z,22.20
2023-03-07T19:16:44.433Z,15.00
2023-03-07T19:19:13.088Z,17.80
2023-03-07T19:21:41.190Z,19.40
2023-03-07T19:24:10.352Z,21.30
2023-03-07T19:26:40.918Z,25.40
2023-03-07T19:29:09.886Z,16.20
2023-03-07T19:31:38.070Z,18.50
2023-03-07T19:34:06.554Z,14.20
2023-03-07T19:36:35.405Z,16.90
2023-03-07T19:39:03.822Z,14.20
2023-03-07T19:41:32.993Z,15.10
2023-03-07T19:44:01.134Z,19.90
2023-03-07T19:46:30.407Z,20.20
2023-03-07T19:49:00.211Z,20.00
2023-03-07T19:51:28.178Z,22.50
2023-03-07T19:53:57.596Z,19.40
2023-03-07T19:56:28.918Z,21.50
2023-03-07T19:58:57.557Z,19.90
2023-03-07T20:01:27.495Z,26.80
2023-03-07T20:03:55.659Z,23.90
2023-03-07T20:06:29.585Z,23.60
2023-03-07T20:08:58.239Z,21.40
2023-03-07T20:11:32.038Z,20.90
2023-03-07T20:14:01.165Z,22.80
2023-03-07T20:16:29.636Z,21.60
2023-03-07T20:18:59.874Z,17.80
2023-03-07T20:21:34.594Z,21.20
2023-03-07T20:24:03.089Z,19.30
2023-03-07T20:26:33.096Z,22.60
2023-03-07T20:29:03.729Z,20.80
2023-03-07T20:31:32.126Z,24.20
2023-03-07T20:34:01.225Z,21.00
2023-03-07T20:36:30.914Z,24.40
2023-03-07T20:39:00.630Z,23.40
2023-03-07T20:41:30.588Z,23.00
2023-03-07T20:44:00.982Z,27.40
2023-03-07T20:46:30.541Z,23.70
2023-03-07T20:48:59.480Z,22.40
2023-03-07T20:51:29.832Z,27.90
2023-03-07T20:54:02.181Z,25.20
2023-03-07T20:56:31.711Z,23.20
2023-03-07T20:59:03.873Z,22.50
2023-03-07T21:01:33.042Z,28.00
2023-03-07T21:04:06.265Z,28.90
2023-03-07T21:06:40.191Z,27.30
2023-03-07T21:09:10.271Z,25.80
2023-03-07T21:11:40.802Z,23.80
2023-03-07T21:14:09.484Z,24.60
2023-03-07T21:16:38.827Z,22.30
2023-03-07T21:19:07.222Z,22.40
2023-03-07T21:21:35.613Z,26.60
2023-03-07T21:24:04.119Z,25.30
2023-03-07T21:26:33.682Z,25.40
2023-03-07T21:29:03.771Z,24.40
2023-03-07T21:31:34.708Z,26.40
2023-03-07T21:34:04.540Z,20.90
2023-03-07T21:36:33.172Z,20.90
2023-03-07T21:39:04.307Z,22.30
2023-03-07T21:41:32.349Z,23.70
2023-03-07T21:44:01.022Z,17.00
2023-03-07T21:46:29.139Z,21.60
2023-03-07T21:49:01.425Z,16.90
2023-03-07T21:51:29.702Z,18.00
2023-03-07T21:53:58.008Z,18.50
2023-03-07T21:56:26.054Z,12.90
2023-03-07T21:58:54.228Z,15.10
2023-03-07T22:01:28.001Z,16.80
2023-03-07T22:03:56.870Z,12.70
2023-03-07T22:06:25.014Z,17.40
2023-03-07T22:08:53.242Z,16.40
2023-03-07T22:11:21.367Z,16.80
2023-03-07T22:13:50.984Z,15.30
2023-03-07T22:16:21.791Z,12.00
2023-03-07T22:18:55.054Z,14.50
2023-03-07T22:21:26.272Z,16.00
2023-03-07T22:24:00.604Z,14.10
2023-03-07T22:26:29.471Z,14.40
2023-03-07T22:28:57.501Z,16.30
2023-03-07T22:31:25.802Z,14.50
2023-03-07T22:33:54.623Z,14.00
2023-03-07T22:36:24.590Z,14.60
2023-03-07T22:38:55.943Z,16.20
2023-03-07T22:41:24.715Z,15.00
2023-03-07T22:43:52.757Z,16.00
2023-03-07T22:46:21.337Z,14.90
2023-03-07T22:48:54.678Z,14.00
2023-03-07T22:51:23.948Z,14.30
2023-03-07T22:53:53.663Z,15.50
2023-03-07T22:56:23.543Z,16.90
2023-03-07T22:58:58.733Z,14.70
2023-03-07T23:01:28.321Z,15.90
2023-03-07T23:03:57.225Z,20.40
2023-03-07T23:06:30.820Z,12.90
2023-03-07T23:08:59.919Z,11.90
2023-03-07T23:11:32.712Z,13.80
2023-03-07T23:14:01.143Z,17.10
2023-03-07T23:16:30.158Z,16.50
2023-03-07T23:19:03.364Z,12.10
2023-03-07T23:21:32.362Z,13.40
2023-03-07T23:24:04.703Z,14.20
2023-03-07T23:26:34.744Z,14.50
2023-03-07T23:29:04.147Z,13.10
2023-03-07T23:31:35.815Z,11.80
2023-03-07T23:34:06.571Z,11.00
2023-03-07T23:36:35.999Z,15.00
2023-03-07T23:39:04.078Z,14.60
2023-03-07T23:41:32.203Z,11.60
2023-03-07T23:44:00.618Z,14.30
2023-03-07T23:46:29.026Z,10.20
2023-03-07T23:48:57.457Z,13.40
2023-03-07T23:51:25.625Z,16.30
2023-03-07T23:53:55.466Z,14.40
2023-03-07T23:56:23.760Z,11.40
2023-03-07T23:58:52.045Z,15.20
